Time;durP1;ratioP1;P1;durP2;ratioP2;P2;SDS_P1;SDS_P2;PMS_P1;PMS_P2;Temp;Humidity;BMP_temperature;BMP_pressure;BME280_temperature;BME280_humidity;BME280_pressure;Samples;Min_cycle;Max_cycle;Signal;HPM_P1;HPM_P2
2023/01/18 00:02:03;;;;;;;6.67;4.53;;;4.60;99.90;;;;;;5033002;28;20206;-56
2023/01/18 00:04:30;;;;;;;5.50;4.60;;;4.70;99.90;;;;;;5032742;28;20728;-55
2023/01/18 00:06:57;;;;;;;8.23;4.30;;;4.80;99.90;;;;;;5033005;28;20232;-56
2023/01/18 00:09:23;;;;;;;7.23;4.67;;;4.90;99.90;;;;;;5032984;28;20258;-56
2023/01/18 00:11:50;;;;;;;7.67;4.80;;;5.00;99.90;;;;;;5032522;28;20218;-55
2023/01/18 00:14:17;;;;;;;6.67;4.60;;;5.10;99.90;;;;;;5032901;28;20203;-55
2023/01/18 00:16:44;;;;;;;8.10;5.00;;;5.10;99.90;;;;;;5032869;28;20264;-55
2023/01/18 00:19:12;;;;;;;7.00;4.90;;;5.10;99.90;;;;;;5032851;28;20226;-55
2023/01/18 00:21:40;;;;;;;6.20;4.60;;;5.10;99.90;;;;;;5033452;28;20217;-55
2023/01/18 00:24:09;;;;;;;7.23;5.03;;;5.00;99.90;;;;;;5033610;28;20217;-55
2023/01/18 00:26:37;;;;;;;6.20;4.50;;;5.00;99.90;;;;;;5033719;28;20206;-55
2023/01/18 00:29:04;;;;;;;7.67;4.97;;;5.10;99.90;;;;;;5033676;28;20245;-55
2023/01/18 00:31:31;;;;;;;7.50;5.20;;;5.10;99.90;;;;;;5032879;28;20289;-56
2023/01/18 00:33:58;;;;;;;6.40;5.07;;;5.20;99.90;;;;;;5032886;28;20228;-55
2023/01/18 00:36:26;;;;;;;9.00;5.20;;;5.20;99.90;;;;;;5032494;28;20210;-56
2023/01/18 00:38:53;;;;;;;6.60;4.90;;;5.20;99.90;;;;;;5032706;28;20229;-55
2023/01/18 00:41:20;;;;;;;7.17;5.93;;;5.20;99.90;;;;;;5033867;28;20213;-55
2023/01/18 00:43:46;;;;;;;8.83;5.70;;;5.10;99.90;;;;;;5033705;28;20203;-55
2023/01/18 00:46:16;;;;;;;7.27;5.57;;;5.00;99.90;;;;;;5033089;28;20209;-55
2023/01/18 00:48:44;;;;;;;9.70;5.50;;;5.00;99.90;;;;;;5032845;28;20234;-55
2023/01/18 00:51:13;;;;;;;5.80;5.00;;;5.10;99.90;;;;;;5032432;28;20207;-55
2023/01/18 00:53:43;;;;;;;7.53;5.17;;;5.10;99.90;;;;;;5032535;28;20232;-56
2023/01/18 00:56:14;;;;;;;8.27;5.67;;;5.20;99.90;;;;;;5032314;28;20266;-55
2023/01/18 00:58:41;;;;;;;7.63;5.17;;;5.20;99.90;;;;;;5032302;28;20230;-56
2023/01/18 01:01:08;;;;;;;7.90;5.73;;;5.20;99.90;;;;;;5032148;28;20236;-55
2023/01/18 01:06:44;;;;;;;6.87;5.27;;;5.20;99.90;;;;;;5031001;28;20206;-55
2023/01/18 01:09:13;;;;;;;9.87;6.27;;;5.30;99.90;;;;;;5031647;28;20706;-56
2023/01/18 01:12:31;;;;;;;7.73;5.83;;;5.30;99.90;;;;;;5031973;28;20217;-55
2023/01/18 01:28:08;;;;;;;8.37;6.27;;;5.20;99.90;;;;;;5031893;28;20745;-55
2023/01/18 01:30:35;;;;;;;7.07;5.90;;;5.00;99.90;;;;;;5031813;28;20206;-55
2023/01/18 01:33:01;;;;;;;8.07;6.20;;;4.90;99.90;;;;;;5031871;28;20222;-55
2023/01/18 01:35:28;;;;;;;8.47;6.63;;;4.80;99.90;;;;;;5031773;28;20214;-55
2023/01/18 01:37:55;;;;;;;9.70;6.70;;;4.80;99.90;;;;;;5031392;28;20253;-55
2023/01/18 01:40:22;;;;;;;8.30;6.67;;;4.90;99.90;;;;;;5031259;28;20202;-56
2023/01/18 01:42:50;;;;;;;9.57;6.90;;;4.90;99.90;;;;;;5031937;28;20280;-56
2023/01/18 01:45:17;;;;;;;9.07;6.70;;;4.90;99.90;;;;;;5031597;28;20211;-55
2023/01/18 01:47:46;;;;;;;8.83;6.50;;;4.90;99.90;;;;;;5032925;28;20210;-55
2023/01/18 01:50:19;;;;;;;8.97;7.50;;;5.00;99.90;;;;;;5034793;28;20210;-55
2023/01/18 01:52:47;;;;;;;10.90;7.40;;;5.10;99.90;;;;;;5035024;28;20245;-55
2023/01/18 01:55:21;;;;;;;9.83;7.83;;;5.10;99.90;;;;;;5035217;28;20290;-55
2023/01/18 01:57:54;;;;;;;10.97;8.30;;;5.20;99.90;;;;;;5034986;28;20257;-55
2023/01/18 02:00:23;;;;;;;10.70;8.67;;;5.20;99.90;;;;;;5034657;28;20571;-55
2023/01/18 02:02:53;;;;;;;10.77;9.13;;;5.20;99.90;;;;;;5034870;28;20217;-55
2023/01/18 02:05:20;;;;;;;12.50;8.97;;;5.20;99.90;;;;;;5034737;28;20206;-55
2023/01/18 02:07:48;;;;;;;10.93;9.00;;;5.10;99.90;;;;;;5034674;28;20238;-55
2023/01/18 02:10:15;;;;;;;11.53;9.20;;;5.10;99.90;;;;;;5034566;28;20214;-55
2023/01/18 02:12:46;;;;;;;12.27;9.43;;;5.10;99.90;;;;;;5034506;28;20234;-56
2023/01/18 02:15:15;;;;;;;11.00;9.30;;;5.20;99.90;;;;;;5034559;28;20589;-55
2023/01/18 02:17:55;;;;;;;12.23;9.93;;;5.20;99.90;;;;;;5034374;28;20232;-55
2023/01/18 02:20:48;;;;;;;13.20;9.40;;;5.30;99.90;;;;;;5034545;28;20210;-55
2023/01/18 02:23:34;;;;;;;15.67;9.73;;;5.20;99.90;;;;;;5034512;28;20207;-54
2023/01/18 02:26:33;;;;;;;11.27;8.73;;;5.20;99.90;;;;;;5034356;28;20216;-55
2023/01/18 02:29:08;;;;;;;10.33;8.17;;;5.30;99.90;;;;;;5002712;28;20295;-55
2023/01/18 02:31:40;;;;;;;11.03;8.30;;;5.20;99.90;;;;;;5034368;28;20208;-55
2023/01/18 02:34:15;;;;;;;10.37;8.77;;;5.20;99.90;;;;;;5034172;28;20620;-55
2023/01/18 02:36:52;;;;;;;9.43;8.23;;;5.20;99.90;;;;;;5034294;28;20209;-55
2023/01/18 02:39:30;;;;;;;10.47;8.60;;;5.20;99.90;;;;;;5034431;28;20226;-55
2023/01/18 02:47:34;;;;;;;10.17;8.13;;;5.10;99.90;;;;;;5034197;28;20232;-55
2023/01/18 02:50:02;;;;;;;9.83;8.30;;;4.90;99.90;;;;;;5034026;28;20206;-55
2023/01/18 02:52:40;;;;;;;9.63;8.03;;;4.80;99.90;;;;;;5033915;28;20288;-55
2023/01/18 02:55:10;;;;;;;9.23;7.67;;;4.60;99.90;;;;;;5033785;28;20220;-55
2023/01/18 02:57:37;;;;;;;9.63;7.87;;;4.60;99.90;;;;;;5034010;28;20431;-55
2023/01/18 03:00:10;;;;;;;10.77;8.00;;;4.60;99.90;;;;;;5032625;28;20728;-54
2023/01/18 03:02:40;;;;;;;10.60;7.87;;;4.30;99.90;;;;;;5033967;28;20214;-55
2023/01/18 03:05:09;;;;;;;9.67;7.43;;;4.20;99.90;;;;;;5033618;28;20223;-56
2023/01/18 03:07:45;;;;;;;9.20;7.43;;;4.10;99.90;;;;;;5033590;28;20210;-55
2023/01/18 03:10:13;;;;;;;9.43;7.60;;;4.00;99.90;;;;;;5033439;28;20620;-55
2023/01/18 03:12:47;;;;;;;9.27;7.57;;;3.70;99.90;;;;;;5033622;28;20206;-54
2023/01/18 03:15:21;;;;;;;10.07;8.43;;;3.90;99.90;;;;;;5033832;28;20205;-55
2023/01/18 03:17:51;;;;;;;10.33;8.43;;;4.10;99.90;;;;;;5033368;28;20237;-55
2023/01/18 03:20:33;;;;;;;10.13;7.97;;;4.30;99.90;;;;;;5033038;28;20210;-55
2023/01/18 03:25:53;;;;;;;12.93;8.70;;;4.60;99.90;;;;;;5033584;28;20209;-55
2023/01/18 03:34:03;;;;;;;9.40;7.83;;;4.80;99.90;;;;;;5033268;28;20598;-54
2023/01/18 03:36:33;;;;;;;9.33;8.07;;;4.90;99.90;;;;;;5033041;28;20292;-55
2023/01/18 03:39:03;;;;;;;10.00;8.10;;;4.90;99.90;;;;;;5032887;28;20228;-54
2023/01/18 03:41:37;;;;;;;8.67;7.57;;;5.00;99.90;;;;;;5032609;28;20978;-55
2023/01/18 03:44:08;;;;;;;9.27;7.77;;;5.00;99.90;;;;;;5033150;28;20206;-56
2023/01/18 03:46:38;;;;;;;10.37;8.30;;;5.10;99.90;;;;;;5032817;28;20213;-55
2023/01/18 03:49:05;;;;;;;9.37;7.97;;;5.10;99.90;;;;;;5032570;28;20638;-56
2023/01/18 03:51:48;;;;;;;10.93;8.67;;;5.00;99.90;;;;;;5032419;28;20248;-55
2023/01/18 03:54:20;;;;;;;9.90;8.57;;;4.70;99.90;;;;;;5032851;28;20238;-55
2023/01/18 03:56:51;;;;;;;10.47;8.70;;;4.60;99.90;;;;;;5032765;28;20210;-54
2023/01/18 03:59:18;;;;;;;11.90;9.10;;;4.50;99.90;;;;;;5032587;28;20304;-54
2023/01/18 04:01:46;;;;;;;11.47;9.13;;;4.40;99.90;;;;;;5032511;28;20213;-55
2023/01/18 04:04:14;;;;;;;11.03;8.60;;;4.60;99.90;;;;;;5032470;28;20259;-55
2023/01/18 04:06:41;;;;;;;12.87;10.47;;;4.60;99.90;;;;;;5032643;28;20202;-55
2023/01/18 04:09:08;;;;;;;10.53;8.63;;;4.60;99.90;;;;;;5032675;28;20329;-55
2023/01/18 04:11:35;;;;;;;11.93;9.57;;;4.50;99.90;;;;;;5031920;28;20207;-55
2023/01/18 04:14:01;;;;;;;12.27;9.53;;;4.60;99.90;;;;;;5032356;28;20229;-55
2023/01/18 04:16:28;;;;;;;10.33;8.93;;;4.70;99.90;;;;;;5032466;28;20218;-55
2023/01/18 04:18:56;;;;;;;11.20;9.53;;;4.70;99.90;;;;;;5032163;28;20229;-55
2023/01/18 04:21:23;;;;;;;12.53;9.93;;;4.70;99.90;;;;;;5032217;28;20630;-54
2023/01/18 04:23:49;;;;;;;10.77;8.80;;;4.70;99.90;;;;;;5032471;28;20210;-55
2023/01/18 04:26:16;;;;;;;10.57;9.33;;;4.60;99.90;;;;;;5032332;28;20206;-55
2023/01/18 04:28:43;;;;;;;11.43;9.47;;;4.60;99.90;;;;;;5032071;28;20230;-55
2023/01/18 04:31:09;;;;;;;12.23;9.10;;;4.60;99.90;;;;;;5031677;28;20691;-55
2023/01/18 04:33:36;;;;;;;12.67;9.67;;;4.70;99.90;;;;;;5032362;28;20227;-54
2023/01/18 04:36:05;;;;;;;12.37;9.33;;;4.70;99.90;;;;;;5032147;28;20263;-55
2023/01/18 04:38:31;;;;;;;12.17;10.10;;;4.70;99.90;;;;;;5032049;28;20300;-55
2023/01/18 04:41:02;;;;;;;12.90;9.37;;;4.80;99.90;;;;;;5031688;28;20206;-55
2023/01/18 04:43:29;;;;;;;13.97;9.73;;;4.80;99.90;;;;;;5032423;28;20198;-55
2023/01/18 04:45:57;;;;;;;11.13;9.23;;;4.80;99.90;;;;;;5031906;28;20214;-55
2023/01/18 04:48:24;;;;;;;14.33;10.03;;;4.80;99.90;;;;;;5031927;28;20289;-55
2023/01/18 04:50:52;;;;;;;13.27;10.27;;;4.70;99.90;;;;;;5031812;28;20210;-55
2023/01/18 04:53:21;;;;;;;13.83;10.50;;;4.70;99.90;;;;;;5031969;28;20320;-55
2023/01/18 04:55:48;;;;;;;15.93;11.60;;;4.60;99.90;;;;;;5031934;28;20217;-55
2023/01/18 04:58:14;;;;;;;13.30;10.60;;;4.60;99.90;;;;;;5031919;28;20737;-54
2023/01/18 05:00:41;;;;;;;12.00;10.30;;;4.70;99.90;;;;;;5032036;28;20297;-54
2023/01/18 05:03:09;;;;;;;11.40;9.53;;;4.70;99.90;;;;;;5032305;28;20217;-55
2023/01/18 05:05:35;;;;;;;13.37;10.03;;;4.80;99.90;;;;;;5032207;28;20210;-55
2023/01/18 05:08:02;;;;;;;12.37;10.33;;;4.80;99.90;;;;;;5032105;28;20230;-55
2023/01/18 05:10:32;;;;;;;12.57;10.50;;;4.80;99.90;;;;;;5031793;28;20202;-55
2023/01/18 05:12:59;;;;;;;10.50;8.93;;;4.80;99.90;;;;;;5031838;28;20295;-55
2023/01/18 05:15:25;;;;;;;9.37;8.37;;;4.80;99.90;;;;;;5031959;28;20225;-55
2023/01/18 05:17:52;;;;;;;10.63;8.43;;;4.80;99.90;;;;;;5031725;28;20247;-55
2023/01/18 05:20:19;;;;;;;28.33;19.60;;;4.90;99.90;;;;;;5031520;28;20233;-55
2023/01/18 05:22:45;;;;;;;11.43;9.07;;;4.80;99.90;;;;;;5032722;28;20217;-55
2023/01/18 05:25:12;;;;;;;11.27;9.23;;;4.80;99.90;;;;;;5035463;28;20207;-55
2023/01/18 05:27:40;;;;;;;8.53;7.63;;;4.70;99.90;;;;;;5035570;28;20666;-55
2023/01/18 05:30:08;;;;;;;8.50;7.60;;;4.70;99.90;;;;;;5035355;28;20206;-55
2023/01/18 05:32:35;;;;;;;10.37;7.57;;;4.70;99.90;;;;;;5035518;28;20256;-55
2023/01/18 05:35:02;;;;;;;8.83;7.60;;;4.70;99.90;;;;;;5035399;28;20225;-54
2023/01/18 05:37:28;;;;;;;9.27;7.37;;;4.60;99.90;;;;;;5035251;28;20233;-55
2023/01/18 05:39:55;;;;;;;8.20;7.17;;;4.60;99.90;;;;;;5035938;28;20233;-55
2023/01/18 05:42:22;;;;;;;9.00;6.43;;;4.40;99.90;;;;;;5035489;28;20210;-54
2023/01/18 05:44:50;;;;;;;9.03;6.30;;;4.30;99.90;;;;;;5035488;28;20210;-54
2023/01/18 05:47:16;;;;;;;7.33;5.43;;;4.10;99.90;;;;;;5035290;28;20210;-54
2023/01/18 05:49:43;;;;;;;6.20;5.23;;;4.00;99.90;;;;;;5035039;28;20229;-54
2023/01/18 05:52:10;;;;;;;6.57;4.80;;;3.90;99.90;;;;;;5035323;28;20586;-55
2023/01/18 05:54:37;;;;;;;5.77;4.93;;;3.80;99.90;;;;;;5035010;28;20230;-54
2023/01/18 05:57:03;;;;;;;6.33;4.43;;;3.60;99.90;;;;;;5035673;28;20210;-54
2023/01/18 05:59:30;;;;;;;4.47;3.90;;;3.60;99.90;;;;;;5035030;28;20226;-54
2023/01/18 06:01:58;;;;;;;4.30;3.90;;;3.60;99.90;;;;;;5034616;28;20206;-54
2023/01/18 06:04:25;;;;;;;6.80;4.00;;;3.70;99.90;;;;;;5034742;28;20209;-54
2023/01/18 06:06:52;;;;;;;4.33;3.67;;;3.80;99.90;;;;;;5034792;28;20210;-54
2023/01/18 06:09:19;;;;;;;6.07;4.10;;;3.80;99.90;;;;;;5034736;28;20284;-54
2023/01/18 06:11:45;;;;;;;5.50;3.93;;;3.80;99.90;;;;;;5034548;28;20206;-54
2023/01/18 06:14:13;;;;;;;3.97;3.53;;;3.70;99.90;;;;;;5034419;28;20222;-54
2023/01/18 06:16:40;;;;;;;4.60;3.77;;;3.70;99.90;;;;;;5034644;28;20213;-54
2023/01/18 06:19:08;;;;;;;4.60;3.93;;;3.70;99.90;;;;;;5034383;28;20237;-54
2023/01/18 06:21:34;;;;;;;4.53;3.83;;;3.60;99.90;;;;;;5034190;28;20589;-54
2023/01/18 06:24:01;;;;;;;4.63;4.07;;;3.50;99.90;;;;;;5034617;28;20203;-54
2023/01/18 06:26:30;;;;;;;5.13;3.93;;;3.50;99.90;;;;;;5034395;28;20717;-55
2023/01/18 06:28:56;;;;;;;5.00;4.00;;;3.60;99.90;;;;;;5034435;28;20596;-54
2023/01/18 06:31:23;;;;;;;5.23;3.93;;;3.60;99.90;;;;;;5034165;28;20209;-54
2023/01/18 06:33:50;;;;;;;4.80;4.27;;;3.60;99.90;;;;;;5033931;28;20228;-54
2023/01/18 06:36:18;;;;;;;5.10;4.10;;;3.60;99.90;;;;;;5034024;28;20209;-54
2023/01/18 06:38:44;;;;;;;9.13;6.80;;;3.60;99.90;;;;;;5034240;28;20317;-54
2023/01/18 06:41:11;;;;;;;5.27;4.17;;;3.60;99.90;;;;;;5034108;28;20209;-54
2023/01/18 06:43:38;;;;;;;5.40;4.50;;;3.50;99.90;;;;;;5034094;28;20210;-54
2023/01/18 06:46:08;;;;;;;4.77;4.27;;;3.60;99.90;;;;;;5034189;28;20736;-54
2023/01/18 06:48:35;;;;;;;7.27;4.50;;;3.60;99.90;;;;;;5034071;28;20242;-54
2023/01/18 06:51:02;;;;;;;5.43;4.70;;;3.50;99.90;;;;;;5034609;28;20624;-53
2023/01/18 06:53:30;;;;;;;5.73;4.47;;;3.60;99.90;;;;;;5034585;28;20210;-54
2023/01/18 06:56:00;;;;;;;4.80;4.30;;;3.60;99.90;;;;;;5034162;28;20226;-54
2023/01/18 06:58:29;;;;;;;8.77;6.80;;;3.60;99.90;;;;;;5034344;28;20230;-54
2023/01/18 07:00:57;;;;;;;6.50;4.67;;;3.60;99.90;;;;;;5034842;28;20206;-54
2023/01/18 07:03:24;;;;;;;4.63;4.17;;;3.70;99.90;;;;;;5033975;28;20627;-54
2023/01/18 07:05:53;;;;;;;5.83;4.70;;;3.70;99.90;;;;;;5035032;28;20356;-54
2023/01/18 07:08:20;;;;;;;4.93;4.07;;;3.60;99.90;;;;;;5034896;28;20313;-53
2023/01/18 07:10:49;;;;;;;4.40;4.00;;;3.60;99.90;;;;;;5034474;28;20300;-54
2023/01/18 07:13:15;;;;;;;5.90;4.87;;;3.60;99.90;;;;;;5034085;28;20206;-54
2023/01/18 07:15:42;;;;;;;5.13;4.50;;;3.70;99.90;;;;;;5033724;28;20233;-54
2023/01/18 07:18:09;;;;;;;6.93;4.30;;;3.60;99.90;;;;;;5034308;28;20625;-54
2023/01/18 07:20:36;;;;;;;6.13;4.90;;;3.60;99.90;;;;;;5034123;28;20210;-54
2023/01/18 07:23:03;;;;;;;6.43;5.07;;;3.70;99.90;;;;;;5033980;28;20701;-54
2023/01/18 07:25:30;;;;;;;6.13;4.00;;;3.80;99.90;;;;;;5033822;28;20198;-54
2023/01/18 07:27:59;;;;;;;5.40;3.80;;;3.90;99.90;;;;;;5033581;28;20228;-54
2023/01/18 07:30:25;;;;;;;8.90;4.10;;;3.80;99.90;;;;;;5033345;28;20298;-54
2023/01/18 07:32:53;;;;;;;5.10;3.97;;;3.80;99.90;;;;;;5033798;28;20210;-54
2023/01/18 07:35:21;;;;;;;5.27;4.20;;;3.60;99.90;;;;;;5033519;28;20642;-54
2023/01/18 07:37:51;;;;;;;5.37;3.70;;;3.60;99.90;;;;;;5033383;28;20284;-54
2023/01/18 07:40:19;;;;;;;3.83;3.17;;;3.70;99.90;;;;;;5033540;28;20206;-54
2023/01/18 07:42:47;;;;;;;8.43;4.20;;;3.70;99.90;;;;;;5033174;28;20585;-55
2023/01/18 07:45:15;;;;;;;4.57;4.10;;;3.70;99.90;;;;;;5032571;28;20218;-54
2023/01/18 07:47:44;;;;;;;6.77;3.90;;;3.60;99.90;;;;;;5033707;28;20214;-53
2023/01/18 07:50:13;;;;;;;5.90;3.93;;;3.60;99.90;;;;;;5033260;28;20667;-54
2023/01/18 07:52:39;;;;;;;4.07;3.57;;;3.60;99.90;;;;;;5033054;28;20304;-54
2023/01/18 07:55:07;;;;;;;5.80;3.50;;;3.70;99.90;;;;;;5033075;28;20222;-54
2023/01/18 07:57:34;;;;;;;4.37;3.83;;;3.70;99.90;;;;;;5032958;28;20217;-53
2023/01/18 08:00:00;;;;;;;4.93;3.50;;;3.80;99.90;;;;;;5033269;28;20214;-56
2023/01/18 08:02:29;;;;;;;5.37;3.33;;;3.70;99.90;;;;;;5032949;28;20225;-54
2023/01/18 08:04:56;;;;;;;6.67;3.87;;;3.60;99.90;;;;;;5033238;28;20202;-54
2023/01/18 08:07:23;;;;;;;4.50;3.83;;;3.70;99.90;;;;;;5032744;28;20218;-61
2023/01/18 08:09:50;;;;;;;6.10;4.60;;;3.80;99.90;;;;;;5032723;28;20315;-55
2023/01/18 08:12:17;;;;;;;5.10;4.10;;;3.90;99.90;;;;;;5032805;28;20255;-55
2023/01/18 08:14:44;;;;;;;5.57;4.60;;;3.90;99.90;;;;;;5032538;28;20226;-55
2023/01/18 08:17:11;;;;;;;5.93;5.33;;;3.90;99.90;;;;;;5032697;28;20206;-55
2023/01/18 08:19:40;;;;;;;5.63;5.03;;;4.00;99.90;;;;;;5032522;28;20230;-55
2023/01/18 08:22:08;;;;;;;5.60;4.97;;;4.10;99.90;;;;;;5032436;28;20737;-55
2023/01/18 08:24:34;;;;;;;6.20;5.60;;;4.10;99.90;;;;;;5032626;28;20470;-54
2023/01/18 08:27:01;;;;;;;7.70;5.50;;;4.10;99.90;;;;;;5033014;28;20213;-54
2023/01/18 08:29:28;;;;;;;7.33;6.30;;;4.00;99.90;;;;;;5032419;28;20226;-56
2023/01/18 08:31:55;;;;;;;8.50;5.97;;;4.00;99.90;;;;;;5032497;28;20273;-56
2023/01/18 08:34:22;;;;;;;7.70;5.83;;;3.90;99.90;;;;;;5032229;28;20210;-56
2023/01/18 08:36:50;;;;;;;6.40;5.77;;;3.90;99.90;;;;;;5032271;28;20233;-56
2023/01/18 08:39:17;;;;;;;6.47;5.87;;;4.10;99.90;;;;;;5032312;28;20253;-56
2023/01/18 08:41:45;;;;;;;6.80;5.20;;;4.20;99.90;;;;;;5031884;28;20639;-56
2023/01/18 08:44:12;;;;;;;7.13;5.20;;;4.30;99.90;;;;;;5032427;28;20252;-56
2023/01/18 08:46:39;;;;;;;7.83;4.97;;;4.30;99.90;;;;;;5032205;28;20214;-56
2023/01/18 08:49:06;;;;;;;6.07;4.90;;;4.40;99.90;;;;;;5032004;28;20233;-56
2023/01/18 08:51:33;;;;;;;5.87;5.20;;;4.40;99.90;;;;;;5032108;28;20283;-56
2023/01/18 08:54:01;;;;;;;6.57;5.20;;;4.40;99.90;;;;;;5032146;28;20210;-56
2023/01/18 08:56:28;;;;;;;6.43;5.00;;;4.30;99.90;;;;;;5032889;28;20236;-56
2023/01/18 08:58:56;;;;;;;5.47;4.50;;;4.30;99.90;;;;;;5036434;28;20222;-56
2023/01/18 09:01:23;;;;;;;5.57;4.97;;;4.40;99.90;;;;;;5036016;28;20217;-56
2023/01/18 09:03:53;;;;;;;6.23;5.27;;;4.40;99.90;;;;;;5036083;28;20260;-56
2023/01/18 09:06:21;;;;;;;6.60;4.70;;;4.40;99.90;;;;;;5035918;28;20210;-56
2023/01/18 09:08:48;;;;;;;5.17;4.67;;;4.40;99.90;;;;;;5035996;28;20233;-56
2023/01/18 09:11:17;;;;;;;5.47;4.87;;;4.30;99.90;;;;;;5036101;28;20210;-54
2023/01/18 09:13:44;;;;;;;5.93;5.17;;;4.30;99.90;;;;;;5036316;28;20498;-55
2023/01/18 09:16:12;;;;;;;6.40;5.40;;;4.30;99.90;;;;;;5036157;28;20230;-55
2023/01/18 09:18:39;;;;;;;6.23;5.63;;;4.40;99.90;;;;;;5036122;28;20276;-56
2023/01/18 09:21:07;;;;;;;7.20;5.33;;;4.40;99.90;;;;;;5035995;28;20272;-56
2023/01/18 09:23:35;;;;;;;7.77;5.50;;;4.50;99.90;;;;;;5036472;28;20674;-55
2023/01/18 09:26:03;;;;;;;5.83;5.27;;;4.60;99.90;;;;;;5036438;28;20230;-55
2023/01/18 09:28:32;;;;;;;8.80;5.97;;;4.70;99.90;;;;;;5036342;28;20313;-56
2023/01/18 09:31:00;;;;;;;7.73;6.80;;;4.90;99.90;;;;;;5036265;28;20586;-56
2023/01/18 09:33:28;;;;;;;5.23;4.73;;;5.10;99.90;;;;;;5036011;28;20638;-57
2023/01/18 09:35:55;;;;;;;5.80;4.70;;;5.20;99.90;;;;;;5035959;28;20226;-57
2023/01/18 09:38:22;;;;;;;5.20;4.70;;;5.30;99.90;;;;;;5035925;28;20226;-56
2023/01/18 09:40:51;;;;;;;6.07;5.13;;;5.30;99.90;;;;;;5035977;28;20202;-56
2023/01/18 09:43:24;;;;;;;5.07;4.50;;;5.20;99.90;;;;;;5036063;28;20241;-56
2023/01/18 09:45:52;;;;;;;5.27;4.57;;;5.00;99.90;;;;;;5035677;28;20206;-56
2023/01/18 09:48:31;;;;;;;5.00;4.47;;;4.80;99.90;;;;;;5035439;28;20265;-56
2023/01/18 09:51:02;;;;;;;4.90;4.27;;;4.70;99.90;;;;;;5035711;28;20214;-55
2023/01/18 09:53:46;;;;;;;5.20;4.47;;;4.70;99.90;;;;;;5035514;28;20214;-55
2023/01/18 09:56:18;;;;;;;6.73;5.07;;;4.80;99.90;;;;;;5035738;28;20306;-55
2023/01/18 09:58:57;;;;;;;5.73;4.30;;;4.80;99.90;;;;;;5035380;28;20234;-55
2023/01/18 10:01:30;;;;;;;6.13;4.63;;;4.70;99.90;;;;;;5035387;28;20279;-55
2023/01/18 10:04:01;;;;;;;5.57;4.50;;;4.70;99.90;;;;;;5035255;28;20206;-56
2023/01/18 10:06:32;;;;;;;5.00;4.40;;;4.90;99.90;;;;;;5031300;28;20445;-55
2023/01/18 10:09:03;;;;;;;4.57;4.17;;;4.90;99.90;;;;;;5033390;28;20317;-54
2023/01/18 10:11:42;;;;;;;5.53;4.50;;;4.90;99.90;;;;;;5033832;28;20667;-54
2023/01/18 10:14:17;;;;;;;5.87;4.17;;;5.00;99.90;;;;;;5034308;28;20675;-58
2023/01/18 10:16:51;;;;;;;5.77;5.00;;;4.90;99.90;;;;;;5034129;28;20225;-57
2023/01/18 10:19:24;;;;;;;5.07;4.00;;;4.90;99.90;;;;;;5033576;28;20262;-56
2023/01/18 10:21:55;;;;;;;5.27;4.23;;;4.90;99.90;;;;;;5033654;28;20300;-56
2023/01/18 10:24:32;;;;;;;6.33;3.90;;;4.80;99.90;;;;;;5034180;28;20218;-60
2023/01/18 10:27:09;;;;;;;5.27;3.87;;;4.90;99.90;;;;;;5034745;28;20548;-52
2023/01/18 10:29:50;;;;;;;4.90;4.10;;;4.80;99.90;;;;;;5034625;28;20809;-51
2023/01/18 10:32:22;;;;;;;4.80;4.17;;;4.60;99.90;;;;;;5035202;28;20224;-52
2023/01/18 10:34:51;;;;;;;17.73;14.43;;;4.60;99.90;;;;;;5034478;28;20654;-52
2023/01/18 10:37:28;;;;;;;4.40;4.00;;;4.70;99.90;;;;;;5034869;28;20289;-52
2023/01/18 10:39:58;;;;;;;4.43;4.03;;;4.80;99.90;;;;;;5034902;28;20577;-52
2023/01/18 10:42:31;;;;;;;5.70;3.93;;;4.80;99.90;;;;;;5034648;28;20297;-52
2023/01/18 10:44:58;;;;;;;6.83;4.90;;;4.90;99.90;;;;;;5034698;28;20746;-52
2023/01/18 10:47:26;;;;;;;6.50;4.70;;;5.20;99.90;;;;;;5034360;28;20209;-53
2023/01/18 10:49:58;;;;;;;6.13;4.60;;;5.30;99.90;;;;;;5034440;28;20221;-53
2023/01/18 10:52:27;;;;;;;5.53;4.80;;;5.40;99.90;;;;;;5034085;28;20206;-53
2023/01/18 10:54:56;;;;;;;4.93;4.40;;;5.30;99.90;;;;;;5034567;28;20210;-53
2023/01/18 10:57:28;;;;;;;5.60;4.67;;;5.30;99.90;;;;;;5034901;28;20244;-53
2023/01/18 10:59:55;;;;;;;6.47;4.83;;;5.40;99.90;;;;;;5034374;28;20206;-53
2023/01/18 11:02:30;;;;;;;6.27;4.73;;;5.40;99.90;;;;;;5033911;28;20210;-52
2023/01/18 11:05:07;;;;;;;7.93;5.20;;;5.30;99.90;;;;;;5034304;28;20209;-53
2023/01/18 11:07:34;;;;;;;9.40;5.97;;;5.20;99.90;;;;;;5034279;28;20216;-53
2023/01/18 11:10:08;;;;;;;8.50;5.60;;;5.10;99.90;;;;;;5033842;28;20292;-52
2023/01/18 11:12:42;;;;;;;8.70;5.30;;;5.20;99.90;;;;;;5034042;28;20263;-52
2023/01/18 11:15:27;;;;;;;7.73;5.10;;;5.30;99.90;;;;;;5033970;28;20206;-52
2023/01/18 11:18:05;;;;;;;5.97;5.37;;;5.30;99.90;;;;;;5033778;28;20222;-53
2023/01/18 11:20:36;;;;;;;7.87;5.80;;;5.30;99.90;;;;;;5033130;28;20209;-53
2023/01/18 11:23:06;;;;;;;7.90;6.20;;;5.40;99.90;;;;;;5033728;28;20206;-53
2023/01/18 11:25:38;;;;;;;8.43;5.60;;;5.40;99.90;;;;;;5033590;28;20206;-52
2023/01/18 11:28:12;;;;;;;8.57;5.90;;;5.50;99.90;;;;;;5033617;28;20745;-53
2023/01/18 11:30:54;;;;;;;8.57;6.03;;;5.50;99.90;;;;;;5033577;28;20202;-53
2023/01/18 11:33:24;;;;;;;5.80;5.17;;;5.40;99.90;;;;;;5033718;28;20206;-53
2023/01/18 11:35:56;;;;;;;7.63;6.07;;;5.30;99.90;;;;;;5033952;28;20284;-53
2023/01/18 11:38:28;;;;;;;6.63;5.50;;;5.20;99.90;;;;;;5033711;28;20225;-53
2023/01/18 11:41:07;;;;;;;11.93;9.53;;;5.20;99.90;;;;;;5033784;28;20310;-53
2023/01/18 11:43:38;;;;;;;6.40;4.90;;;5.30;99.90;;;;;;5034341;28;20396;-54
2023/01/18 11:46:20;;;;;;;6.03;4.87;;;5.20;99.90;;;;;;5034460;28;20206;-53
2023/01/18 11:48:53;;;;;;;7.57;5.10;;;5.20;99.90;;;;;;5033499;28;20607;-53
2023/01/18 11:51:25;;;;;;;7.33;4.93;;;5.30;99.90;;;;;;5033951;28;20348;-54
2023/01/18 11:53:58;;;;;;;6.50;5.23;;;5.30;99.90;;;;;;5033769;28;20214;-54
2023/01/18 11:56:32;;;;;;;7.37;5.20;;;5.40;99.90;;;;;;5033186;28;20226;-53
2023/01/18 11:58:59;;;;;;;6.37;4.87;;;5.50;99.90;;;;;;5032996;28;20222;-54
2023/01/18 12:01:51;;;;;;;7.87;4.77;;;5.50;99.90;;;;;;5032924;28;20210;-53
2023/01/18 12:04:32;;;;;;;8.97;5.17;;;5.50;99.90;;;;;;5021914;28;20245;-53
2023/01/18 12:07:16;;;;;;;7.43;5.27;;;5.40;99.90;;;;;;5033032;28;20208;-54
2023/01/18 12:09:48;;;;;;;9.50;5.60;;;5.40;99.90;;;;;;5032660;28;20313;-53
2023/01/18 12:12:32;;;;;;;5.63;4.90;;;5.20;99.90;;;;;;5032769;28;20206;-53
2023/01/18 12:15:20;;;;;;;9.03;5.57;;;5.10;99.90;;;;;;5032845;28;20206;-53
2023/01/18 12:18:00;;;;;;;8.20;5.60;;;5.10;99.90;;;;;;5032297;28;20298;-53
2023/01/18 12:20:38;;;;;;;7.80;5.70;;;4.90;99.90;;;;;;5032479;28;20596;-53
2023/01/18 12:23:37;;;;;;;6.67;4.90;;;4.70;99.90;;;;;;5032653;28;20301;-53
2023/01/18 12:26:28;;;;;;;6.13;4.60;;;4.70;99.90;;;;;;5033227;28;20202;-52
2023/01/18 12:29:13;;;;;;;7.10;5.10;;;4.90;99.90;;;;;;5023985;28;20317;-53
2023/01/18 12:31:54;;;;;;;7.60;4.73;;;5.10;99.90;;;;;;5032255;28;20206;-53
2023/01/18 12:34:26;;;;;;;7.13;4.77;;;5.10;99.90;;;;;;5032606;28;20212;-54
2023/01/18 12:37:23;;;;;;;6.70;4.77;;;5.10;99.90;;;;;;5032462;28;20229;-53
2023/01/18 12:40:06;;;;;;;5.43;4.80;;;5.10;99.90;;;;;;5032397;28;20714;-53
2023/01/18 12:42:46;;;;;;;8.40;5.00;;;5.00;99.90;;;;;;5032088;28;20687;-52
2023/01/18 12:45:24;;;;;;;7.20;5.20;;;4.80;99.90;;;;;;5032603;28;20218;-53
2023/01/18 12:48:00;;;;;;;8.37;4.50;;;4.80;99.90;;;;;;5032386;28;20234;-52
2023/01/18 12:50:30;;;;;;;6.70;4.50;;;4.90;99.90;;;;;;5032044;28;20567;-52
2023/01/18 12:53:03;;;;;;;7.37;4.43;;;5.00;99.90;;;;;;5031870;28;20694;-52
2023/01/18 12:55:33;;;;;;;5.93;4.53;;;5.00;99.90;;;;;;5032139;28;20631;-52
2023/01/18 12:58:02;;;;;;;6.37;4.30;;;5.00;99.90;;;;;;5032003;28;20229;-52
2023/01/18 13:00:34;;;;;;;9.33;4.60;;;5.10;99.90;;;;;;5031923;28;20695;-53
2023/01/18 13:03:08;;;;;;;10.17;5.30;;;5.10;99.90;;;;;;5031985;28;20206;-52
2023/01/18 13:05:47;;;;;;;6.90;4.63;;;5.20;99.90;;;;;;5032005;28;20237;-52
2023/01/18 13:08:23;;;;;;;9.80;5.87;;;5.30;99.90;;;;;;5032044;28;20237;-52
2023/01/18 13:10:51;;;;;;;7.20;5.17;;;5.40;99.90;;;;;;5032101;28;20217;-53
2023/01/18 13:13:22;;;;;;;6.00;4.47;;;5.50;99.90;;;;;;5032077;28;20202;-53
2023/01/18 13:15:54;;;;;;;6.53;4.63;;;5.60;99.90;;;;;;5032455;28;20586;-53
2023/01/18 13:18:27;;;;;;;7.93;5.57;;;5.70;99.90;;;;;;5031910;28;20240;-53
2023/01/18 13:21:06;;;;;;;6.33;4.67;;;5.70;99.90;;;;;;5031905;28;20217;-53
2023/01/18 13:23:44;;;;;;;7.53;4.80;;;5.60;99.90;;;;;;5032094;28;20214;-53
2023/01/18 13:26:22;;;;;;;7.60;4.63;;;5.60;99.90;;;;;;5032921;28;20205;-53
2023/01/18 13:29:05;;;;;;;6.97;4.23;;;5.60;99.90;;;;;;5031751;28;20230;-53
2023/01/18 13:31:32;;;;;;;7.30;5.03;;;5.70;99.90;;;;;;5032021;28;20688;-52
2023/01/18 13:33:59;;;;;;;6.40;4.43;;;5.70;99.90;;;;;;5032406;28;20297;-53
2023/01/18 13:36:26;;;;;;;6.67;4.50;;;5.80;99.90;;;;;;5031814;28;20711;-53
2023/01/18 13:38:57;;;;;;;5.73;4.33;;;5.90;99.90;;;;;;5032354;28;20597;-53
2023/01/18 13:41:26;;;;;;;6.03;4.70;;;6.00;99.90;;;;;;5032823;28;20206;-52
2023/01/18 13:44:03;;;;;;;8.53;4.50;;;5.90;99.90;;;;;;5033901;28;20217;-53